Time;durP1;ratioP1;P1;durP2;ratioP2;P2;SDS_P1;SDS_P2;PMS_P1;PMS_P2;Temp;Humidity;BMP_temperature;BMP_pressure;BME280_temperature;BME280_humidity;BME280_pressure;Samples;Min_cycle;Max_cycle;Signal;HPM_P1;HPM_P2
2022/12/24 00:01:04;;;;;;;29.13;3.55;;;;;;;;;;5016915;28;20032;-77
2022/12/24 00:03:29;;;;;;;25.83;3.72;;;;;;;;;;5019344;28;20043;-77
2022/12/24 00:05:55;;;;;;;31.65;4.47;;;;;;;;;;5019047;28;20049;-77
2022/12/24 00:08:21;;;;;;;23.63;3.35;;;;;;;;;;5019740;28;20034;-76
2022/12/24 00:10:53;;;;;;;40.63;3.60;;;;;;;;;;5017965;28;20037;-77
2022/12/24 00:13:18;;;;;;;24.73;3.40;;;;;;;;;;5012186;28;20068;-77
2022/12/24 00:15:44;;;;;;;26.25;2.58;;;;;;;;;;5025710;28;20061;-77
2022/12/24 00:18:09;;;;;;;22.77;2.75;;;;;;;;;;5019715;28;20044;-77
2022/12/24 00:20:35;;;;;;;22.30;3.65;;;;;;;;;;5022612;28;20505;-77
2022/12/24 00:23:00;;;;;;;30.02;3.33;;;;;;;;;;5015025;28;20038;-77
2022/12/24 00:25:25;;;;;;;22.83;3.22;;;;;;;;;;5027954;28;20065;-78
2022/12/24 00:27:51;;;;;;;18.75;3.05;;;;;;;;;;5020189;28;20452;-78
2022/12/24 00:30:16;;;;;;;22.92;3.35;;;;;;;;;;5019960;28;20065;-77
2022/12/24 00:32:42;;;;;;;34.20;3.95;;;;;;;;;;5019192;28;20448;-78
2022/12/24 00:35:07;;;;;;;33.70;4.30;;;;;;;;;;5016823;28;20037;-78
2022/12/24 00:37:33;;;;;;;30.77;2.75;;;;;;;;;;5018878;28;20069;-77
2022/12/24 00:39:59;;;;;;;31.80;3.35;;;;;;;;;;5021780;28;20135;-77
2022/12/24 00:42:25;;;;;;;29.77;3.38;;;;;;;;;;5021363;28;20045;-77
2022/12/24 00:44:50;;;;;;;35.20;3.20;;;;;;;;;;5022372;28;20049;-77
2022/12/24 00:47:15;;;;;;;19.80;2.50;;;;;;;;;;5021469;28;20041;-78
2022/12/24 00:49:41;;;;;;;23.63;3.00;;;;;;;;;;5021804;28;20042;-77
2022/12/24 00:52:06;;;;;;;26.33;2.95;;;;;;;;;;5026956;28;20362;-77
2022/12/24 00:54:31;;;;;;;23.90;2.90;;;;;;;;;;5024637;28;20038;-77
2022/12/24 00:56:57;;;;;;;20.38;3.60;;;;;;;;;;5028539;28;20063;-77
2022/12/24 00:59:22;;;;;;;19.27;2.95;;;;;;;;;;5021155;28;20036;-76
2022/12/24 01:01:48;;;;;;;23.35;3.88;;;;;;;;;;5029763;28;20048;-76
2022/12/24 01:06:57;;;;;;;27.17;3.72;;;;;;;;;;5027305;28;20048;-76
2022/12/24 01:09:22;;;;;;;26.23;3.22;;;;;;;;;;5017203;28;20477;-75
2022/12/24 01:11:48;;;;;;;27.88;4.00;;;;;;;;;;5022959;28;20037;-75
2022/12/24 01:14:13;;;;;;;32.55;3.22;;;;;;;;;;5020666;28;20038;-75
2022/12/24 01:16:38;;;;;;;26.92;2.97;;;;;;;;;;5023024;28;20394;-75
2022/12/24 01:19:04;;;;;;;32.13;3.45;;;;;;;;;;5027173;28;20045;-76
2022/12/24 01:21:29;;;;;;;19.88;2.97;;;;;;;;;;5017959;28;20041;-75
2022/12/24 01:23:55;;;;;;;25.23;3.28;;;;;;;;;;5017302;28;20045;-75
2022/12/24 01:26:20;;;;;;;22.58;3.08;;;;;;;;;;5020226;28;20040;-75
2022/12/24 01:28:46;;;;;;;24.67;2.65;;;;;;;;;;5024821;28;20074;-75
2022/12/24 01:31:17;;;;;;;26.05;3.58;;;;;;;;;;5026143;28;20061;-75
2022/12/24 01:33:43;;;;;;;21.63;3.22;;;;;;;;;;5027651;28;20401;-75
2022/12/24 01:36:09;;;;;;;20.98;3.15;;;;;;;;;;5020111;28;20050;-75
2022/12/24 01:38:35;;;;;;;22.42;2.25;;;;;;;;;;5017228;28;20045;-75
2022/12/24 01:43:44;;;;;;;24.60;3.22;;;;;;;;;;5023724;28;20057;-75
2022/12/24 01:46:19;;;;;;;21.08;3.22;;;;;;;;;;5018794;28;20490;-75
2022/12/24 01:48:59;;;;;;;16.67;2.90;;;;;;;;;;5011332;28;20054;-75
2022/12/24 01:51:44;;;;;;;22.50;2.33;;;;;;;;;;5017745;28;20041;-75
2022/12/24 01:54:30;;;;;;;24.02;2.53;;;;;;;;;;5029465;28;20025;-75
2022/12/24 01:57:00;;;;;;;19.40;1.95;;;;;;;;;;5033200;28;20043;-75
2022/12/24 01:59:25;;;;;;;20.20;2.92;;;;;;;;;;5030321;28;20056;-75
2022/12/24 02:01:52;;;;;;;17.05;1.80;;;;;;;;;;5024211;28;20466;-75
2022/12/24 02:04:35;;;;;;;13.57;2.00;;;;;;;;;;5030702;28;20121;-75
2022/12/24 02:07:01;;;;;;;16.40;2.08;;;;;;;;;;5019088;28;20034;-75
2022/12/24 02:09:26;;;;;;;15.60;1.70;;;;;;;;;;5031156;28;20041;-75
2022/12/24 02:11:52;;;;;;;20.23;1.80;;;;;;;;;;5026997;28;20454;-74
2022/12/24 02:14:17;;;;;;;16.25;1.98;;;;;;;;;;5026741;28;20092;-75
2022/12/24 02:17:07;;;;;;;9.95;1.48;;;;;;;;;;5029387;28;20549;-74
2022/12/24 02:19:50;;;;;;;9.88;2.33;;;;;;;;;;5018936;28;20382;-74
2022/12/24 02:22:31;;;;;;;16.95;2.42;;;;;;;;;;5024516;28;20045;-74
2022/12/24 02:25:47;;;;;;;13.95;1.73;;;;;;;;;;5026781;28;20030;-74
2022/12/24 02:28:53;;;;;;;7.72;1.50;;;;;;;;;;5018398;28;20049;-75
2022/12/24 02:31:34;;;;;;;13.38;2.30;;;;;;;;;;5024828;28;20105;-75
2022/12/24 02:34:11;;;;;;;11.45;2.10;;;;;;;;;;5023594;28;20037;-74
2022/12/24 02:36:44;;;;;;;13.73;2.00;;;;;;;;;;5021776;28;20569;-74
2022/12/24 02:39:13;;;;;;;15.13;1.60;;;;;;;;;;5023409;28;20064;-74
2022/12/24 02:42:05;;;;;;;8.77;1.83;;;;;;;;;;5019934;28;20072;-75
2022/12/24 02:44:36;;;;;;;15.02;2.08;;;;;;;;;;5017997;28;20084;-74
2022/12/24 02:47:02;;;;;;;8.98;1.13;;;;;;;;;;5023725;28;20397;-75
2022/12/24 02:49:27;;;;;;;8.27;1.10;;;;;;;;;;5019208;28;20482;-74
2022/12/24 02:51:53;;;;;;;9.32;1.83;;;;;;;;;;5026844;28;20038;-75
2022/12/24 02:54:18;;;;;;;10.10;1.42;;;;;;;;;;5022908;28;20033;-75
2022/12/24 02:56:50;;;;;;;22.10;1.70;;;;;;;;;;5024285;28;20041;-75
2022/12/24 02:59:46;;;;;;;17.35;1.52;;;;;;;;;;5021360;28;20095;-75
2022/12/24 03:02:18;;;;;;;12.82;1.58;;;;;;;;;;5019901;28;20050;-75
2022/12/24 03:05:09;;;;;;;10.75;1.15;;;;;;;;;;5022759;28;20083;-75
2022/12/24 03:07:44;;;;;;;18.05;1.33;;;;;;;;;;5021820;28;20053;-75
2022/12/24 03:10:22;;;;;;;17.25;1.88;;;;;;;;;;5029737;28;20034;-74
2022/12/24 03:12:52;;;;;;;10.55;1.15;;;;;;;;;;5030399;28;20489;-74
2022/12/24 03:15:21;;;;;;;8.10;1.60;;;;;;;;;;5025880;28;20535;-75
2022/12/24 03:17:48;;;;;;;9.77;1.35;;;;;;;;;;5017706;28;20030;-75
2022/12/24 03:20:18;;;;;;;11.27;1.30;;;;;;;;;;5023448;28;20042;-75
2022/12/24 03:22:44;;;;;;;15.38;1.20;;;;;;;;;;5032646;28;20026;-75
2022/12/24 03:25:09;;;;;;;15.77;1.83;;;;;;;;;;5023031;28;20040;-75
2022/12/24 03:27:35;;;;;;;9.18;1.33;;;;;;;;;;5026515;28;20444;-75
2022/12/24 03:30:03;;;;;;;17.65;1.75;;;;;;;;;;5016961;28;20030;-74
2022/12/24 03:32:30;;;;;;;13.55;1.70;;;;;;;;;;5023430;28;20037;-75
2022/12/24 03:34:55;;;;;;;15.32;1.42;;;;;;;;;;5019445;28;20120;-74
2022/12/24 03:37:21;;;;;;;31.98;1.70;;;;;;;;;;5028239;28;20450;-75
2022/12/24 03:39:46;;;;;;;16.77;1.70;;;;;;;;;;5026608;28;20485;-74
2022/12/24 03:42:12;;;;;;;12.40;1.02;;;;;;;;;;5024638;28;20095;-74
2022/12/24 03:44:37;;;;;;;9.93;1.42;;;;;;;;;;5023672;28;20041;-74
2022/12/24 03:47:03;;;;;;;12.07;1.20;;;;;;;;;;5025263;28;20049;-74
2022/12/24 03:49:28;;;;;;;10.93;0.98;;;;;;;;;;5019947;28;20140;-75
2022/12/24 03:51:54;;;;;;;15.50;1.50;;;;;;;;;;5024875;28;20033;-75
2022/12/24 03:54:19;;;;;;;15.45;1.40;;;;;;;;;;5024590;28;20120;-75
2022/12/24 03:56:44;;;;;;;14.18;1.30;;;;;;;;;;5024971;28;20049;-75
2022/12/24 03:59:10;;;;;;;26.63;1.83;;;;;;;;;;5023181;28;20465;-75
2022/12/24 04:01:35;;;;;;;14.23;1.20;;;;;;;;;;5019802;28;20048;-75
2022/12/24 04:04:01;;;;;;;9.57;1.20;;;;;;;;;;5019965;28;20397;-75
2022/12/24 04:06:26;;;;;;;18.88;1.30;;;;;;;;;;5016099;28;20494;-75
2022/12/24 04:08:51;;;;;;;8.05;1.35;;;;;;;;;;5027961;28;20041;-76
2022/12/24 04:11:17;;;;;;;18.90;1.50;;;;;;;;;;5023992;28;20120;-75
2022/12/24 04:13:42;;;;;;;10.18;1.27;;;;;;;;;;5028214;28;20036;-76
2022/12/24 04:16:11;;;;;;;26.58;1.63;;;;;;;;;;5026331;28;20038;-76
2022/12/24 04:18:37;;;;;;;21.77;1.80;;;;;;;;;;5013690;28;20041;-76
2022/12/24 04:21:02;;;;;;;30.30;2.05;;;;;;;;;;5015285;28;20541;-75
2022/12/24 04:23:32;;;;;;;27.15;1.60;;;;;;;;;;5024242;28;20136;-75
2022/12/24 04:26:03;;;;;;;10.43;1.60;;;;;;;;;;5018792;28;20042;-76
2022/12/24 04:28:29;;;;;;;12.18;1.23;;;;;;;;;;5027111;28;20065;-75
2022/12/24 04:30:58;;;;;;;33.40;1.90;;;;;;;;;;5025519;28;20046;-75
2022/12/24 04:33:24;;;;;;;15.10;1.40;;;;;;;;;;5029423;28;20045;-75
2022/12/24 04:35:50;;;;;;;11.63;1.08;;;;;;;;;;5026255;28;20056;-76
2022/12/24 04:38:15;;;;;;;10.77;0.98;;;;;;;;;;5022556;28;20095;-77
2022/12/24 04:40:40;;;;;;;5.25;0.93;;;;;;;;;;5024021;28;20073;-76
2022/12/24 04:43:06;;;;;;;21.52;1.85;;;;;;;;;;5018503;28;20060;-75
2022/12/24 04:45:31;;;;;;;19.50;1.25;;;;;;;;;;5017182;28;20431;-75
2022/12/24 04:47:57;;;;;;;13.25;1.42;;;;;;;;;;5015428;28;20095;-76
2022/12/24 04:50:22;;;;;;;18.60;1.13;;;;;;;;;;5023699;28;20496;-75
2022/12/24 04:52:48;;;;;;;17.05;1.38;;;;;;;;;;5025786;28;20082;-75
2022/12/24 04:55:13;;;;;;;14.93;1.08;;;;;;;;;;5023757;28;20037;-75
2022/12/24 04:57:39;;;;;;;15.95;1.40;;;;;;;;;;5027843;28;20159;-75
2022/12/24 05:00:06;;;;;;;20.15;1.40;;;;;;;;;;5026345;28;20033;-76
2022/12/24 05:02:31;;;;;;;18.60;2.00;;;;;;;;;;5024683;28;20041;-74
2022/12/24 05:04:56;;;;;;;12.60;1.60;;;;;;;;;;5026587;28;20030;-75
2022/12/24 05:07:22;;;;;;;14.90;1.75;;;;;;;;;;5018245;28;20091;-75
2022/12/24 05:09:47;;;;;;;11.32;1.30;;;;;;;;;;5025434;28;20065;-75
2022/12/24 05:12:13;;;;;;;15.90;1.30;;;;;;;;;;5017527;28;20046;-75
2022/12/24 05:14:39;;;;;;;14.63;1.23;;;;;;;;;;5017021;28;20037;-75
2022/12/24 05:17:04;;;;;;;42.83;2.53;;;;;;;;;;5016549;28;20038;-74
2022/12/24 05:19:29;;;;;;;11.57;1.40;;;;;;;;;;5028844;28;20116;-74
2022/12/24 05:27:24;;;;;;;12.00;1.42;;;;;;;;;;5030943;28;20053;-75
2022/12/24 05:29:50;;;;;;;13.35;1.33;;;;;;;;;;5020224;28;20042;-74
2022/12/24 05:32:15;;;;;;;23.10;1.77;;;;;;;;;;5024832;28;20053;-75
2022/12/24 05:34:40;;;;;;;9.25;1.23;;;;;;;;;;5033124;28;20041;-75
2022/12/24 05:37:06;;;;;;;7.57;1.33;;;;;;;;;;5020521;28;20045;-76
2022/12/24 05:39:31;;;;;;;9.43;1.25;;;;;;;;;;5018650;28;20038;-76
2022/12/24 05:41:56;;;;;;;11.82;1.17;;;;;;;;;;5019512;28;20037;-76
2022/12/24 05:44:22;;;;;;;5.93;1.00;;;;;;;;;;5029544;28;20079;-76
2022/12/24 05:46:47;;;;;;;5.90;1.10;;;;;;;;;;5025343;28;20056;-76
2022/12/24 05:49:13;;;;;;;9.77;1.50;;;;;;;;;;5026010;28;20042;-76
2022/12/24 05:51:41;;;;;;;9.55;1.70;;;;;;;;;;5020983;28;20034;-75
2022/12/24 05:54:07;;;;;;;21.90;2.22;;;;;;;;;;5024866;28;20041;-75
2022/12/24 05:56:32;;;;;;;12.20;1.85;;;;;;;;;;5026003;28;20129;-76
2022/12/24 05:58:58;;;;;;;8.57;1.83;;;;;;;;;;5025751;28;20045;-75
2022/12/24 06:01:24;;;;;;;4.30;1.30;;;;;;;;;;5022532;28;20091;-75
2022/12/24 06:03:51;;;;;;;12.75;1.40;;;;;;;;;;5018005;28;20036;-75
2022/12/24 06:06:21;;;;;;;16.40;1.92;;;;;;;;;;5017705;28;20129;-75
2022/12/24 06:08:48;;;;;;;12.43;1.45;;;;;;;;;;5028790;28;20099;-75
2022/12/24 06:11:15;;;;;;;14.73;2.05;;;;;;;;;;5022499;28;20026;-75
2022/12/24 06:13:41;;;;;;;22.02;1.88;;;;;;;;;;5058788;28;20041;-75
2022/12/24 06:16:09;;;;;;;141.23;5.35;;;;;;;;;;5026323;28;20112;-75
2022/12/24 06:18:35;;;;;;;9.40;1.50;;;;;;;;;;5028221;28;20088;-76
2022/12/24 06:21:00;;;;;;;15.95;1.88;;;;;;;;;;5022116;28;20496;-75
2022/12/24 06:23:28;;;;;;;5.28;1.60;;;;;;;;;;5025552;28;20041;-75
2022/12/24 06:25:55;;;;;;;10.63;1.42;;;;;;;;;;5046305;28;20554;-76
2022/12/24 06:28:20;;;;;;;18.48;1.90;;;;;;;;;;5026692;28;20041;-75
2022/12/24 06:30:49;;;;;;;6.53;1.80;;;;;;;;;;5030010;28;20040;-75
2022/12/24 06:33:15;;;;;;;13.13;1.60;;;;;;;;;;5026601;28;20040;-75
2022/12/24 06:35:41;;;;;;;11.65;1.85;;;;;;;;;;5017378;28;20555;-75
2022/12/24 06:38:07;;;;;;;19.40;1.73;;;;;;;;;;5019140;28;20048;-75
2022/12/24 06:40:32;;;;;;;10.32;1.80;;;;;;;;;;5022149;28;20412;-76
2022/12/24 06:42:57;;;;;;;9.25;1.25;;;;;;;;;;5023562;28;20370;-75
2022/12/24 06:45:23;;;;;;;9.32;1.40;;;;;;;;;;5024419;28;20089;-75
2022/12/24 06:47:48;;;;;;;12.52;1.80;;;;;;;;;;5024772;28;20159;-75
2022/12/24 06:50:14;;;;;;;13.95;1.92;;;;;;;;;;5022433;28;20470;-75
2022/12/24 06:52:39;;;;;;;14.85;1.27;;;;;;;;;;5018814;28;20515;-75
2022/12/24 06:55:05;;;;;;;12.15;1.50;;;;;;;;;;5018100;28;20051;-76
2022/12/24 06:57:30;;;;;;;12.88;1.35;;;;;;;;;;5015369;28;20044;-76
2022/12/24 06:59:57;;;;;;;8.13;1.10;;;;;;;;;;5028059;28;20039;-76
2022/12/24 07:02:23;;;;;;;5.88;1.00;;;;;;;;;;5023521;28;20048;-75
2022/12/24 07:04:48;;;;;;;3.42;0.80;;;;;;;;;;5025776;28;20037;-75
2022/12/24 07:07:13;;;;;;;10.82;0.90;;;;;;;;;;5018373;28;20044;-76
2022/12/24 07:09:39;;;;;;;5.60;0.85;;;;;;;;;;5020685;28;20029;-77
2022/12/24 07:12:04;;;;;;;2.05;0.88;;;;;;;;;;5019696;28;20490;-77
2022/12/24 07:14:31;;;;;;;24.63;1.20;;;;;;;;;;5000106;28;20124;-76
2022/12/24 07:16:57;;;;;;;6.90;0.77;;;;;;;;;;5023235;28;20025;-75
2022/12/24 07:19:23;;;;;;;7.72;1.38;;;;;;;;;;5020988;28;20040;-77
2022/12/24 07:21:48;;;;;;;9.32;1.38;;;;;;;;;;5024554;28;20112;-75
2022/12/24 07:24:14;;;;;;;1.13;0.63;;;;;;;;;;5022717;28;20029;-76
2022/12/24 07:26:39;;;;;;;11.00;1.25;;;;;;;;;;5017821;28;20041;-74
2022/12/24 07:29:05;;;;;;;8.90;1.38;;;;;;;;;;5018075;28;20038;-76
2022/12/24 07:31:30;;;;;;;7.13;1.38;;;;;;;;;;5027866;28;20033;-76
2022/12/24 07:33:56;;;;;;;23.48;2.05;;;;;;;;;;5021032;28;20076;-76
2022/12/24 07:36:21;;;;;;;11.95;1.98;;;;;;;;;;5024020;28;20041;-75
2022/12/24 07:38:47;;;;;;;24.27;3.15;;;;;;;;;;5030139;28;20044;-75
2022/12/24 07:41:13;;;;;;;27.90;2.50;;;;;;;;;;5026161;28;20109;-75
2022/12/24 07:43:38;;;;;;;29.00;3.63;;;;;;;;;;5023160;28;20046;-75
2022/12/24 07:46:04;;;;;;;35.50;3.47;;;;;;;;;;5014226;28;20030;-76
2022/12/24 07:48:30;;;;;;;31.70;2.33;;;;;;;;;;5023640;28;20053;-75
2022/12/24 07:50:56;;;;;;;35.53;2.92;;;;;;;;;;5020822;28;20045;-76
2022/12/24 07:53:23;;;;;;;34.00;3.22;;;;;;;;;;5021869;28;20461;-76
2022/12/24 07:55:48;;;;;;;23.70;3.03;;;;;;;;;;5031723;28;20129;-76
2022/12/24 07:58:14;;;;;;;23.77;2.53;;;;;;;;;;5019703;28;20120;-75
2022/12/24 08:00:39;;;;;;;27.65;2.72;;;;;;;;;;5018503;28;20022;-75
2022/12/24 08:03:05;;;;;;;28.85;3.63;;;;;;;;;;5018821;28;20470;-75
2022/12/24 08:05:36;;;;;;;35.45;3.50;;;;;;;;;;5026474;28;20094;-76
2022/12/24 08:08:02;;;;;;;29.70;3.00;;;;;;;;;;5014767;28;20100;-75
2022/12/24 08:10:27;;;;;;;30.90;2.47;;;;;;;;;;5019072;28;20152;-75
2022/12/24 08:12:53;;;;;;;43.63;4.65;;;;;;;;;;5016794;28;20367;-75
2022/12/24 08:15:18;;;;;;;29.15;3.88;;;;;;;;;;5009756;28;20117;-76
2022/12/24 08:17:44;;;;;;;35.25;3.97;;;;;;;;;;5007082;28;20047;-77
2022/12/24 08:20:10;;;;;;;36.72;3.03;;;;;;;;;;4994125;28;20045;-75
2022/12/24 08:22:35;;;;;;;39.20;3.65;;;;;;;;;;5010046;28;20136;-76
2022/12/24 08:25:01;;;;;;;45.85;5.45;;;;;;;;;;4938779;28;21211;-76
2022/12/24 08:27:26;;;;;;;38.67;3.00;;;;;;;;;;5006509;28;20569;-76
2022/12/24 08:29:51;;;;;;;35.58;3.55;;;;;;;;;;5012752;28;20033;-76
2022/12/24 08:32:17;;;;;;;47.17;3.50;;;;;;;;;;5010184;28;20501;-75
2022/12/24 08:34:42;;;;;;;41.90;3.13;;;;;;;;;;5011870;28;20034;-76
2022/12/24 08:37:08;;;;;;;41.00;3.80;;;;;;;;;;5013984;28;20433;-75
2022/12/24 08:39:33;;;;;;;38.13;2.78;;;;;;;;;;5012703;28;20576;-75
2022/12/24 08:41:59;;;;;;;26.60;3.88;;;;;;;;;;4988766;28;20145;-76
2022/12/24 08:44:24;;;;;;;34.13;3.25;;;;;;;;;;5007403;28;20449;-75
2022/12/24 08:46:49;;;;;;;24.77;3.15;;;;;;;;;;5010655;28;20042;-75
2022/12/24 08:49:15;;;;;;;18.40;1.70;;;;;;;;;;5010275;28;20140;-76
2022/12/24 08:51:40;;;;;;;13.70;1.55;;;;;;;;;;5008593;28;20041;-76
2022/12/24 08:54:06;;;;;;;28.85;2.88;;;;;;;;;;5009973;28;20478;-76
2022/12/24 08:56:33;;;;;;;44.70;4.18;;;;;;;;;;5013216;28;20054;-76
2022/12/24 08:58:59;;;;;;;29.75;3.47;;;;;;;;;;5010220;28;20109;-76
2022/12/24 09:01:24;;;;;;;15.15;1.95;;;;;;;;;;5010349;28;20116;-76
2022/12/24 09:03:49;;;;;;;17.38;1.40;;;;;;;;;;5019591;28;20057;-77
2022/12/24 09:06:15;;;;;;;18.20;2.00;;;;;;;;;;5005042;28;20397;-77
2022/12/24 09:08:41;;;;;;;12.57;1.35;;;;;;;;;;5017485;28;20092;-77
2022/12/24 09:11:09;;;;;;;36.80;4.38;;;;;;;;;;5014170;28;20454;-77
2022/12/24 09:13:34;;;;;;;42.00;5.30;;;;;;;;;;4988102;28;20026;-77
2022/12/24 09:16:00;;;;;;;17.30;2.08;;;;;;;;;;5012257;28;20405;-76
2022/12/24 09:18:27;;;;;;;43.45;9.23;;;;;;;;;;5010658;28;20382;-76
2022/12/24 09:21:04;;;;;;;49.78;7.82;;;;;;;;;;5013060;28;20652;-76
2022/12/24 09:23:32;;;;;;;30.67;4.38;;;;;;;;;;5018493;28;20045;-76
2022/12/24 09:25:58;;;;;;;33.17;4.75;;;;;;;;;;5016247;28;20029;-75
2022/12/24 09:28:23;;;;;;;38.33;7.03;;;;;;;;;;5015473;28;20036;-75
2022/12/24 09:30:59;;;;;;;26.65;5.45;;;;;;;;;;5030945;28;20049;-75
2022/12/24 09:33:26;;;;;;;38.50;5.57;;;;;;;;;;5047600;28;20022;-75
2022/12/24 09:35:52;;;;;;;37.97;4.85;;;;;;;;;;5027923;28;20041;-76
2022/12/24 09:38:19;;;;;;;32.33;4.00;;;;;;;;;;5025130;28;20489;-76
2022/12/24 09:40:45;;;;;;;34.25;4.60;;;;;;;;;;5033431;28;20037;-75
2022/12/24 09:43:30;;;;;;;36.75;4.68;;;;;;;;;;5024240;28;20096;-75
2022/12/24 09:46:08;;;;;;;27.42;3.97;;;;;;;;;;5036617;28;20044;-75
2022/12/24 09:48:37;;;;;;;43.20;4.50;;;;;;;;;;5007969;28;20505;-75
2022/12/24 09:51:09;;;;;;;27.77;3.78;;;;;;;;;;5025193;28;20121;-75
2022/12/24 09:53:35;;;;;;;26.52;4.03;;;;;;;;;;5014133;28;20125;-75
2022/12/24 09:56:03;;;;;;;31.67;3.20;;;;;;;;;;5025072;28;20125;-76
2022/12/24 09:58:34;;;;;;;32.60;3.70;;;;;;;;;;5031131;28;20037;-75
2022/12/24 10:00:59;;;;;;;19.02;2.22;;;;;;;;;;5021744;28;20042;-76
2022/12/24 10:03:25;;;;;;;33.35;3.28;;;;;;;;;;5020371;28;20440;-75
2022/12/24 10:06:00;;;;;;;18.58;2.30;;;;;;;;;;5021129;28;20045;-76
2022/12/24 10:08:34;;;;;;;25.98;1.85;;;;;;;;;;5017737;28;20049;-76
2022/12/24 10:11:06;;;;;;;24.35;1.85;;;;;;;;;;5029174;28;20050;-76
2022/12/24 10:13:57;;;;;;;22.25;1.90;;;;;;;;;;5020573;28;20045;-76
2022/12/24 10:16:32;;;;;;;31.08;2.20;;;;;;;;;;5043694;28;20041;-75
2022/12/24 10:19:12;;;;;;;31.08;6.05;;;;;;;;;;5024942;28;20401;-76
2022/12/24 10:21:53;;;;;;;17.20;2.58;;;;;;;;;;5020162;28;20049;-75
2022/12/24 10:24:35;;;;;;;27.38;3.20;;;;;;;;;;5023650;28;20448;-76
2022/12/24 10:27:14;;;;;;;23.02;3.20;;;;;;;;;;5022610;28;20033;-75
2022/12/24 10:29:42;;;;;;;30.70;4.28;;;;;;;;;;5019039;28;20037;-77
2022/12/24 10:32:08;;;;;;;21.60;3.30;;;;;;;;;;5019044;28;20033;-76
2022/12/24 10:34:45;;;;;;;25.23;4.82;;;;;;;;;;5021528;28;20417;-77
2022/12/24 10:37:23;;;;;;;33.55;5.65;;;;;;;;;;5026379;28;20525;-77
2022/12/24 10:39:49;;;;;;;27.63;4.88;;;;;;;;;;5022392;28;20037;-76
2022/12/24 10:42:16;;;;;;;22.67;3.50;;;;;;;;;;5016098;28;20034;-77
2022/12/24 10:44:44;;;;;;;32.05;6.10;;;;;;;;;;5036167;28;20037;-77
2022/12/24 10:47:10;;;;;;;26.73;5.28;;;;;;;;;;5018886;28;20041;-76
2022/12/24 10:49:44;;;;;;;32.03;6.72;;;;;;;;;;5020907;28;20578;-77
2022/12/24 10:52:16;;;;;;;29.10;7.80;;;;;;;;;;5026094;28;20041;-77
2022/12/24 10:55:34;;;;;;;39.15;9.82;;;;;;;;;;5023984;28;20029;-78
2022/12/24 10:58:04;;;;;;;38.70;7.80;;;;;;;;;;5002715;28;20041;-78
2022/12/24 11:00:30;;;;;;;35.00;6.30;;;;;;;;;;5000584;28;20042;-78
2022/12/24 11:03:27;;;;;;;37.38;6.40;;;;;;;;;;5014407;28;20363;-78
2022/12/24 11:06:06;;;;;;;33.92;6.32;;;;;;;;;;5037755;28;20104;-77
2022/12/24 11:08:33;;;;;;;31.10;7.07;;;;;;;;;;5022742;28;20070;-78
2022/12/24 11:11:00;;;;;;;36.45;6.55;;;;;;;;;;5002056;28;20565;-78
2022/12/24 11:13:29;;;;;;;24.58;4.93;;;;;;;;;;5019352;28;20096;-78
2022/12/24 11:16:13;;;;;;;32.75;6.40;;;;;;;;;;5017135;28;20040;-78
2022/12/24 11:18:43;;;;;;;;;;;;;;;;;;5019306;28;20121;-78
2022/12/24 11:21:09;;;;;;;33.17;6.30;;;;;;;;;;5021342;28;19936;-78
2022/12/24 11:23:34;;;;;;;41.85;7.63;;;;;;;;;;5014925;28;20046;-78
2022/12/24 11:26:00;;;;;;;41.20;6.10;;;;;;;;;;5011810;28;20045;-78
2022/12/24 11:28:26;;;;;;;38.63;6.47;;;;;;;;;;5013121;28;20096;-79
2022/12/24 11:30:56;;;;;;;40.25;7.50;;;;;;;;;;5016296;28;20052;-79
2022/12/24 11:33:22;;;;;;;38.20;7.70;;;;;;;;;;4996482;28;20037;-78
2022/12/24 11:35:52;;;;;;;30.95;5.50;;;;;;;;;;5015688;28;20030;-78
2022/12/24 11:38:22;;;;;;;30.73;4.45;;;;;;;;;;5016957;28;20144;-78
2022/12/24 11:40:57;;;;;;;28.88;4.38;;;;;;;;;;5009051;28;20092;-78
2022/12/24 11:43:22;;;;;;;25.90;3.72;;;;;;;;;;5019358;28;20052;-78
2022/12/24 11:45:58;;;;;;;25.92;2.90;;;;;;;;;;5011773;28;20734;-78
2022/12/24 11:48:30;;;;;;;24.98;3.65;;;;;;;;;;5014991;28;20456;-78
2022/12/24 11:51:09;;;;;;;32.53;4.05;;;;;;;;;;5017596;28;20045;-78
2022/12/24 11:53:48;;;;;;;35.90;3.25;;;;;;;;;;5024648;28;20057;-78
2022/12/24 11:56:44;;;;;;;30.52;3.63;;;;;;;;;;5012023;28;20045;-78
2022/12/24 11:59:35;;;;;;;35.10;3.58;;;;;;;;;;5010907;28;20061;-77
2022/12/24 12:02:22;;;;;;;23.95;3.10;;;;;;;;;;5013597;28;20578;-78
2022/12/24 12:05:18;;;;;;;26.42;4.07;;;;;;;;;;5030303;28;20537;-78
2022/12/24 12:07:46;;;;;;;30.83;3.00;;;;;;;;;;5013909;28;20046;-78
2022/12/24 12:10:17;;;;;;;30.08;3.45;;;;;;;;;;5012995;28;20112;-77
2022/12/24 12:12:53;;;;;;;30.42;4.10;;;;;;;;;;5015141;28;20137;-78
2022/12/24 12:15:22;;;;;;;33.63;3.75;;;;;;;;;;5038191;28;20049;-78
2022/12/24 12:18:07;;;;;;;37.20;3.40;;;;;;;;;;5014232;28;20362;-78
2022/12/24 12:20:41;;;;;;;26.95;4.55;;;;;;;;;;5011966;28;20406;-78
2022/12/24 12:23:25;;;;;;;32.40;4.72;;;;;;;;;;5013380;28;20057;-78
2022/12/24 12:25:58;;;;;;;37.35;5.25;;;;;;;;;;5009915;28;20045;-78
2022/12/24 12:28:57;;;;;;;31.15;5.75;;;;;;;;;;5013497;28;20120;-78
2022/12/24 12:31:41;;;;;;;40.00;5.00;;;;;;;;;;5014646;28;20033;-78
2022/12/24 12:34:21;;;;;;;28.05;4.20;;;;;;;;;;5032844;28;20022;-78
2022/12/24 12:36:49;;;;;;;35.47;4.82;;;;;;;;;;5022756;28;20489;-77
2022/12/24 12:39:14;;;;;;;42.85;5.80;;;;;;;;;;5014422;28;20124;-77
2022/12/24 12:42:01;;;;;;;30.20;4.47;;;;;;;;;;5020037;28;20165;-77
2022/12/24 12:44:45;;;;;;;30.83;4.00;;;;;;;;;;5014329;28;20041;-77
2022/12/24 12:47:10;;;;;;;33.05;4.97;;;;;;;;;;5011125;28;20091;-77
2022/12/24 12:49:48;;;;;;;28.52;4.45;;;;;;;;;;5020971;28;20112;-78
2022/12/24 12:52:42;;;;;;;29.90;3.17;;;;;;;;;;5015648;28;20045;-76
2022/12/24 12:55:35;;;;;;;42.42;4.68;;;;;;;;;;5014329;28;20092;-77
2022/12/24 12:58:05;;;;;;;26.02;3.75;;;;;;;;;;5021892;28;20044;-77
2022/12/24 13:00:35;;;;;;;34.45;4.30;;;;;;;;;;5035015;28;20045;-76
2022/12/24 13:03:36;;;;;;;27.25;3.38;;;;;;;;;;5026918;28;20041;-77
2022/12/24 13:06:11;;;;;;;43.28;4.57;;;;;;;;;;5016046;28;20038;-76
2022/12/24 13:08:43;;;;;;;28.40;3.05;;;;;;;;;;5019277;28;20045;-76
2022/12/24 13:11:21;;;;;;;21.23;2.95;;;;;;;;;;5016476;28;20042;-76
2022/12/24 13:13:49;;;;;;;34.67;3.75;;;;;;;;;;5010672;28;20156;-77
2022/12/24 13:16:28;;;;;;;44.55;4.32;;;;;;;;;;5001216;28;20049;-78
2022/12/24 13:19:27;;;;;;;30.23;5.80;;;;;;;;;;5014036;28;20038;-77
2022/12/24 13:21:54;;;;;;;33.90;4.30;;;;;;;;;;5020101;28;20099;-76
2022/12/24 13:24:24;;;;;;;45.95;4.55;;;;;;;;;;5020431;28;20141;-77
2022/12/24 13:27:14;;;;;;;40.55;4.70;;;;;;;;;;5020386;28;20557;-77
2022/12/24 13:29:52;;;;;;;35.38;5.25;;;;;;;;;;5014644;28;20038;-78
2022/12/24 13:32:18;;;;;;;35.40;4.22;;;;;;;;;;5014113;28;20501;-78
2022/12/24 13:34:56;;;;;;;31.08;4.05;;;;;;;;;;5014644;28;20049;-78
2022/12/24 13:37:33;;;;;;;41.55;7.30;;;;;;;;;;5009470;28;20083;-77
2022/12/24 13:40:05;;;;;;;51.58;9.45;;;;;;;;;;5011705;28;20069;-78
2022/12/24 13:42:46;;;;;;;43.45;6.32;;;;;;;;;;5020081;28;20056;-77
2022/12/24 13:45:27;;;;;;;34.78;5.35;;;;;;;;;;5016943;28;20113;-77
2022/12/24 13:47:53;;;;;;;39.17;6.25;;;;;;;;;;5028095;28;20042;-77
2022/12/24 13:50:27;;;;;;;35.92;8.93;;;;;;;;;;5025054;28;20051;-77
2022/12/24 13:52:53;;;;;;;31.95;6.32;;;;;;;;;;5022217;28;20478;-77
2022/12/24 13:55:18;;;;;;;24.90;5.90;;;;;;;;;;5026329;28;20040;-76
2022/12/24 13:57:51;;;;;;;38.78;7.63;;;;;;;;;;5016336;28;20092;-77
2022/12/24 14:00:20;;;;;;;40.55;7.22;;;;;;;;;;5013812;28;20030;-76
2022/12/24 14:02:49;;;;;;;31.20;6.35;;;;;;;;;;5018288;28;20588;-76
2022/12/24 14:05:35;;;;;;;33.60;7.97;;;;;;;;;;5017136;28;20026;-76
2022/12/24 14:08:03;;;;;;;40.15;5.85;;;;;;;;;;5021549;28;20080;-77
2022/12/24 14:10:42;;;;;;;26.13;5.20;;;;;;;;;;5019076;28;20037;-76
2022/12/24 14:13:37;;;;;;;30.00;4.95;;;;;;;;;;5019581;28;20081;-79
2022/12/24 14:16:04;;;;;;;37.15;6.30;;;;;;;;;;5013512;28;20048;-79
2022/12/24 14:18:37;;;;;;;34.83;6.63;;;;;;;;;;5014973;28;20180;-77
2022/12/24 14:21:03;;;;;;;37.75;5.70;;;;;;;;;;5055145;28;20111;-77
2022/12/24 14:23:44;;;;;;;28.38;4.57;;;;;;;;;;5029025;28;20424;-77
2022/12/24 14:26:18;;;;;;;27.95;4.22;;;;;;;;;;5022718;28;20115;-76
2022/12/24 14:28:49;;;;;;;41.53;5.40;;;;;;;;;;5017316;28;20091;-76
2022/12/24 14:31:17;;;;;;;23.35;4.05;;;;;;;;;;5024018;28;20542;-76
2022/12/24 14:33:43;;;;;;;51.95;14.15;;;;;;;;;;5023280;28;20022;-76
2022/12/24 14:36:08;;;;;;;47.63;11.57;;;;;;;;;;5024572;28;20532;-76
2022/12/24 14:38:34;;;;;;;37.63;9.48;;;;;;;;;;5028342;28;20045;-76
2022/12/24 14:41:08;;;;;;;36.28;7.80;;;;;;;;;;5027735;28;20051;-77
2022/12/24 14:44:04;;;;;;;37.15;5.93;;;;;;;;;;5028601;28;20057;-75
2022/12/24 14:46:55;;;;;;;31.85;5.00;;;;;;;;;;5025942;28;20033;-78
2022/12/24 14:49:26;;;;;;;29.23;5.13;;;;;;;;;;5024309;28;20140;-77
2022/12/24 14:52:10;;;;;;;32.35;5.18;;;;;;;;;;5022430;28;20482;-78
2022/12/24 14:54:40;;;;;;;24.27;4.35;;;;;;;;;;5022709;28;20034;-78
2022/12/24 14:57:09;;;;;;;44.28;7.15;;;;;;;;;;5021044;28;20041;-77
2022/12/24 14:59:53;;;;;;;38.95;6.88;;;;;;;;;;5022062;28;20041;-78